Time;durP1;ratioP1;P1;durP2;ratioP2;P2;SDS_P1;SDS_P2;PMS_P1;PMS_P2;Temp;Humidity;BMP_temperature;BMP_pressure;BME280_temperature;BME280_humidity;BME280_pressure;Samples;Min_cycle;Max_cycle;Signal;HPM_P1;HPM_P2
2022/06/08 00:02:17;;;;;;;13.00;11.47;;;;;;;;;;4854917;29;20204;-69
2022/06/08 00:04:44;;;;;;;12.97;11.67;;;;;;;;;;4873348;29;20595;-69
2022/06/08 00:07:11;;;;;;;12.37;11.17;;;;;;;;;;4868781;29;20577;-69
2022/06/08 00:09:38;;;;;;;12.70;11.40;;;;;;;;;;4856062;29;20194;-69
2022/06/08 00:12:05;;;;;;;13.17;11.77;;;;;;;;;;4845458;29;20255;-69
2022/06/08 00:14:32;;;;;;;13.23;11.93;;;;;;;;;;4857918;29;20205;-69
2022/06/08 00:16:58;;;;;;;12.90;11.60;;;;;;;;;;4870937;29;20201;-70
2022/06/08 00:19:25;;;;;;;13.80;11.73;;;;;;;;;;4860512;29;20566;-69
2022/06/08 00:21:52;;;;;;;13.20;11.80;;;;;;;;;;4870531;29;20208;-69
2022/06/08 00:24:19;;;;;;;13.13;11.77;;;;;;;;;;4858436;29;20193;-69
2022/06/08 00:26:46;;;;;;;13.63;12.20;;;;;;;;;;4865401;29;20194;-69
2022/06/08 00:29:13;;;;;;;13.27;11.97;;;;;;;;;;4842773;29;20193;-69
2022/06/08 00:31:40;;;;;;;12.50;11.30;;;;;;;;;;4837122;29;20220;-69
2022/06/08 00:34:24;;;;;;;14.27;12.00;;;;;;;;;;4856756;29;20234;-69
2022/06/08 00:36:51;;;;;;;12.93;11.63;;;;;;;;;;4842797;29;20212;-69
2022/06/08 00:39:18;;;;;;;13.50;12.10;;;;;;;;;;4856943;29;20207;-69
2022/06/08 00:41:55;;;;;;;13.50;12.07;;;;;;;;;;4870705;29;20233;-69
2022/06/08 00:44:24;;;;;;;13.60;12.20;;;;;;;;;;4876378;29;20204;-69
2022/06/08 00:46:51;;;;;;;15.10;12.57;;;;;;;;;;4836511;29;20248;-70
2022/06/08 00:49:23;;;;;;;13.77;12.00;;;;;;;;;;4828359;29;20244;-69
2022/06/08 00:51:50;;;;;;;13.70;12.30;;;;;;;;;;4843520;29;20216;-69
2022/06/08 00:54:25;;;;;;;14.27;11.43;;;;;;;;;;4870817;29;20943;-69
2022/06/08 00:56:54;;;;;;;14.83;12.67;;;;;;;;;;4859404;29;20200;-69
2022/06/08 00:59:20;;;;;;;14.37;12.87;;;;;;;;;;4832289;29;20208;-69
2022/06/08 01:01:48;;;;;;;14.40;12.90;;;;;;;;;;4847483;29;20231;-69
2022/06/08 01:04:16;;;;;;;18.67;12.70;;;;;;;;;;4851781;29;20201;-69
2022/06/08 01:06:49;;;;;;;14.13;12.73;;;;;;;;;;4847738;29;20224;-70
2022/06/08 01:09:18;;;;;;;14.27;12.70;;;;;;;;;;4833940;29;20201;-69
2022/06/08 01:11:46;;;;;;;15.07;12.60;;;;;;;;;;4840020;29;20197;-69
2022/06/08 01:14:16;;;;;;;13.00;11.60;;;;;;;;;;4834854;29;20300;-69
2022/06/08 01:16:44;;;;;;;13.37;12.07;;;;;;;;;;4836423;29;20213;-70
2022/06/08 01:19:11;;;;;;;14.57;12.50;;;;;;;;;;4846270;29;20212;-69
2022/06/08 01:21:37;;;;;;;13.80;12.40;;;;;;;;;;4827331;29;20284;-69
2022/06/08 01:24:12;;;;;;;14.57;12.40;;;;;;;;;;4843773;29;20352;-69
2022/06/08 01:26:57;;;;;;;13.33;11.93;;;;;;;;;;4842827;29;20232;-69
2022/06/08 01:29:27;;;;;;;12.87;11.57;;;;;;;;;;4843848;29;20760;-69
2022/06/08 01:32:00;;;;;;;13.67;12.27;;;;;;;;;;4848894;29;20250;-69
2022/06/08 01:34:31;;;;;;;14.63;12.80;;;;;;;;;;4847641;29;20192;-69
2022/06/08 01:37:04;;;;;;;17.57;13.20;;;;;;;;;;4847422;29;20289;-69
2022/06/08 01:39:44;;;;;;;12.77;11.47;;;;;;;;;;4843637;29;20289;-69
2022/06/08 01:42:11;;;;;;;13.30;11.97;;;;;;;;;;4874245;29;20906;-69
2022/06/08 01:47:42;;;;;;;14.30;12.80;;;;;;;;;;4841771;29;20209;-69
2022/06/08 01:50:35;;;;;;;15.87;13.17;;;;;;;;;;4871603;29;21598;-69
2022/06/08 01:53:01;;;;;;;13.73;12.37;;;;;;;;;;4872890;29;20199;-69
2022/06/08 01:55:37;;;;;;;15.80;13.07;;;;;;;;;;4852508;29;20197;-69
2022/06/08 01:58:04;;;;;;;14.87;13.27;;;;;;;;;;4855639;29;20224;-68
2022/06/08 02:00:51;;;;;;;14.13;12.63;;;;;;;;;;4849888;29;20185;-69
2022/06/08 02:03:24;;;;;;;14.63;12.87;;;;;;;;;;4845070;29;20252;-68
2022/06/08 02:05:57;;;;;;;13.47;12.13;;;;;;;;;;4837456;29;20227;-68
2022/06/08 02:08:36;;;;;;;14.60;13.10;;;;;;;;;;4854479;29;20213;-68
2022/06/08 02:11:25;;;;;;;14.43;12.93;;;;;;;;;;4832936;29;20745;-68
2022/06/08 02:13:53;;;;;;;15.77;13.03;;;;;;;;;;4869068;29;20212;-69
2022/06/08 02:16:33;;;;;;;17.83;14.20;;;;;;;;;;4847837;29;21035;-69
2022/06/08 02:19:04;;;;;;;16.17;14.17;;;;;;;;;;4837255;29;20205;-68
2022/06/08 02:21:58;;;;;;;15.87;13.73;;;;;;;;;;4838110;29;20236;-68
2022/06/08 02:24:28;;;;;;;16.80;14.13;;;;;;;;;;4826055;29;20202;-68
2022/06/08 02:26:59;;;;;;;15.53;13.83;;;;;;;;;;4843632;29;20589;-68
2022/06/08 02:29:28;;;;;;;14.73;13.20;;;;;;;;;;4845834;29;20201;-68
2022/06/08 02:32:02;;;;;;;14.77;13.13;;;;;;;;;;4828808;29;20206;-68
2022/06/08 02:34:36;;;;;;;14.80;13.30;;;;;;;;;;4834173;29;20225;-68
2022/06/08 02:37:06;;;;;;;14.57;13.07;;;;;;;;;;4839168;29;20289;-68
2022/06/08 02:39:33;;;;;;;15.50;13.90;;;;;;;;;;4853514;29;20229;-68
2022/06/08 02:42:03;;;;;;;14.77;13.17;;;;;;;;;;4837562;29;21058;-68
2022/06/08 02:44:31;;;;;;;15.57;13.77;;;;;;;;;;4846385;29;20317;-68
2022/06/08 02:46:58;;;;;;;13.67;12.27;;;;;;;;;;4826280;29;20236;-68
2022/06/08 02:49:29;;;;;;;14.87;13.27;;;;;;;;;;4845014;29;20228;-68
2022/06/08 02:52:20;;;;;;;15.27;13.50;;;;;;;;;;4835888;29;20204;-68
2022/06/08 02:54:49;;;;;;;14.37;12.63;;;;;;;;;;4836608;29;20208;-69
2022/06/08 02:57:25;;;;;;;14.43;13.03;;;;;;;;;;4842572;29;20295;-68
2022/06/08 02:59:56;;;;;;;15.03;13.47;;;;;;;;;;4831288;29;20307;-68
2022/06/08 03:02:24;;;;;;;14.57;13.07;;;;;;;;;;4841014;29;20208;-68
2022/06/08 03:04:55;;;;;;;14.90;13.30;;;;;;;;;;4851832;29;20262;-68
2022/06/08 03:07:23;;;;;;;16.60;13.90;;;;;;;;;;4840523;29;20598;-68
2022/06/08 03:09:50;;;;;;;16.70;13.63;;;;;;;;;;4839443;29;20204;-68
2022/06/08 03:12:20;;;;;;;15.13;13.53;;;;;;;;;;4843706;29;20688;-68
2022/06/08 03:14:48;;;;;;;14.30;12.77;;;;;;;;;;4824908;29;20224;-68
2022/06/08 03:17:33;;;;;;;14.37;12.83;;;;;;;;;;4850887;29;20587;-69
2022/06/08 03:20:02;;;;;;;14.70;12.53;;;;;;;;;;4837163;29;20283;-68
2022/06/08 03:22:31;;;;;;;15.00;13.10;;;;;;;;;;4821210;29;20312;-66
2022/06/08 03:24:59;;;;;;;15.97;13.20;;;;;;;;;;4835438;29;20205;-70
2022/06/08 03:27:26;;;;;;;15.90;14.30;;;;;;;;;;4859185;29;20225;-69
2022/06/08 03:30:11;;;;;;;15.13;13.53;;;;;;;;;;4839137;29;20217;-69
2022/06/08 03:32:39;;;;;;;16.30;13.73;;;;;;;;;;4833860;29;20216;-68
2022/06/08 03:35:08;;;;;;;15.97;14.30;;;;;;;;;;4832077;29;20205;-68
2022/06/08 03:37:37;;;;;;;13.73;12.43;;;;;;;;;;4835882;29;20216;-68
2022/06/08 03:40:05;;;;;;;17.13;15.30;;;;;;;;;;4838132;29;20205;-70
2022/06/08 03:42:32;;;;;;;17.33;14.87;;;;;;;;;;4839955;29;20320;-70
2022/06/08 03:45:00;;;;;;;15.50;13.90;;;;;;;;;;4836696;29;20215;-70
2022/06/08 03:47:33;;;;;;;14.73;12.83;;;;;;;;;;4826896;29;20589;-68
2022/06/08 03:50:02;;;;;;;15.03;13.53;;;;;;;;;;4828215;29;20200;-69
2022/06/08 03:52:31;;;;;;;15.17;13.57;;;;;;;;;;4846433;29;20335;-69
2022/06/08 03:54:59;;;;;;;14.40;12.67;;;;;;;;;;4856827;29;20258;-70
2022/06/08 03:57:28;;;;;;;14.63;13.10;;;;;;;;;;4844939;29;20270;-69
2022/06/08 03:59:56;;;;;;;16.97;12.90;;;;;;;;;;4840072;29;20217;-69
2022/06/08 04:02:23;;;;;;;13.93;12.07;;;;;;;;;;4835967;29;20242;-69
2022/06/08 04:04:51;;;;;;;12.50;11.20;;;;;;;;;;4858152;29;20188;-70
2022/06/08 04:07:18;;;;;;;14.30;11.83;;;;;;;;;;4856655;29;20212;-72
2022/06/08 04:09:46;;;;;;;12.90;11.03;;;;;;;;;;4842173;29;20550;-73
2022/06/08 04:12:13;;;;;;;11.33;10.23;;;;;;;;;;4823671;29;20280;-70
2022/06/08 04:14:41;;;;;;;11.87;10.10;;;;;;;;;;4840969;29;20205;-69
2022/06/08 04:17:12;;;;;;;11.57;10.37;;;;;;;;;;4843672;29;20197;-70
2022/06/08 04:19:39;;;;;;;11.23;10.13;;;;;;;;;;4858603;29;20205;-70
2022/06/08 04:22:06;;;;;;;11.70;9.77;;;;;;;;;;4843016;29;20208;-69
2022/06/08 04:24:36;;;;;;;11.27;9.30;;;;;;;;;;4839858;29;20209;-69
2022/06/08 04:27:03;;;;;;;10.73;9.60;;;;;;;;;;4825184;29;20226;-71
2022/06/08 04:29:35;;;;;;;10.20;9.20;;;;;;;;;;4866086;29;20284;-71
2022/06/08 04:32:04;;;;;;;9.87;8.87;;;;;;;;;;4815271;29;20435;-71
2022/06/08 04:34:31;;;;;;;11.33;9.57;;;;;;;;;;4823419;29;20205;-70
2022/06/08 04:36:58;;;;;;;10.80;9.37;;;;;;;;;;4845368;29;20205;-70
2022/06/08 04:39:36;;;;;;;11.63;9.20;;;;;;;;;;4840322;29;20757;-71
2022/06/08 04:42:03;;;;;;;11.87;9.57;;;;;;;;;;4842325;29;20694;-69
2022/06/08 04:44:36;;;;;;;12.43;9.23;;;;;;;;;;4856119;29;20205;-70
2022/06/08 04:47:08;;;;;;;10.93;9.67;;;;;;;;;;4872342;29;20216;-69
2022/06/08 04:49:37;;;;;;;10.93;9.10;;;;;;;;;;4845199;29;20196;-70
2022/06/08 04:52:04;;;;;;;9.97;8.90;;;;;;;;;;4827802;29;20201;-70
2022/06/08 04:54:32;;;;;;;10.57;9.47;;;;;;;;;;4855240;29;20193;-69
2022/06/08 04:57:00;;;;;;;10.43;9.30;;;;;;;;;;4839487;29;20203;-70
2022/06/08 04:59:28;;;;;;;12.67;8.50;;;;;;;;;;4859848;29;20201;-70
2022/06/08 05:05:36;;;;;;;9.40;7.97;;;;;;;;;;4855479;29;20647;-70
2022/06/08 05:08:08;;;;;;;10.03;8.67;;;;;;;;;;4811302;29;20221;-70
2022/06/08 05:10:37;;;;;;;9.33;8.10;;;;;;;;;;4866664;29;20197;-69
2022/06/08 05:13:07;;;;;;;9.23;8.23;;;;;;;;;;4855990;29;20238;-70
2022/06/08 05:15:36;;;;;;;9.63;8.47;;;;;;;;;;4831666;29;20302;-70
2022/06/08 05:18:03;;;;;;;8.87;7.77;;;;;;;;;;4823364;29;20214;-69
2022/06/08 05:20:31;;;;;;;10.97;8.93;;;;;;;;;;4824704;29;20208;-72
2022/06/08 05:22:59;;;;;;;9.53;8.60;;;;;;;;;;4814279;29;20333;-69
2022/06/08 05:25:28;;;;;;;9.83;8.40;;;;;;;;;;4825014;29;20204;-69
2022/06/08 05:27:55;;;;;;;10.57;8.67;;;;;;;;;;4825482;29;20247;-68
2022/06/08 05:30:25;;;;;;;9.77;8.77;;;;;;;;;;4861540;29;20216;-68
2022/06/08 05:32:54;;;;;;;9.70;8.30;;;;;;;;;;4854921;29;20334;-69
2022/06/08 05:35:24;;;;;;;9.27;7.77;;;;;;;;;;4839107;29;20226;-67
2022/06/08 05:37:51;;;;;;;10.07;8.20;;;;;;;;;;4825225;29;20755;-67
2022/06/08 05:40:21;;;;;;;9.73;7.53;;;;;;;;;;4827228;29;20570;-69
2022/06/08 05:42:49;;;;;;;9.30;7.90;;;;;;;;;;4843409;29;20273;-68
2022/06/08 05:45:18;;;;;;;9.10;7.33;;;;;;;;;;4859268;29;20676;-69
2022/06/08 05:48:04;;;;;;;8.57;7.10;;;;;;;;;;4858721;29;20205;-68
2022/06/08 05:50:35;;;;;;;9.50;7.93;;;;;;;;;;4858920;29;20681;-67
2022/06/08 05:53:02;;;;;;;12.17;8.10;;;;;;;;;;4858692;29;20265;-72
2022/06/08 05:55:29;;;;;;;8.23;7.43;;;;;;;;;;4859085;29;20197;-68
2022/06/08 05:57:56;;;;;;;26.57;9.90;;;;;;;;;;4843494;29;20709;-68
2022/06/08 06:00:26;;;;;;;9.10;7.10;;;;;;;;;;4858383;29;20584;-69
2022/06/08 06:02:54;;;;;;;10.30;8.10;;;;;;;;;;4875205;29;20279;-69
2022/06/08 06:05:22;;;;;;;10.10;7.10;;;;;;;;;;4875039;29;20185;-69
2022/06/08 06:07:49;;;;;;;8.20;7.37;;;;;;;;;;4875729;29;20235;-69
2022/06/08 06:10:43;;;;;;;9.17;7.63;;;;;;;;;;4872996;29;20209;-68
2022/06/08 06:13:36;;;;;;;10.87;7.10;;;;;;;;;;4875548;29;20661;-68
2022/06/08 06:16:07;;;;;;;7.93;7.00;;;;;;;;;;4858760;29;20748;-68
2022/06/08 06:18:34;;;;;;;7.77;6.53;;;;;;;;;;4862031;29;20207;-68
2022/06/08 06:21:14;;;;;;;8.00;5.80;;;;;;;;;;4858504;29;20204;-69
2022/06/08 06:23:52;;;;;;;6.80;5.87;;;;;;;;;;4844477;29;20197;-69
2022/06/08 06:26:45;;;;;;;6.20;5.60;;;;;;;;;;4860930;29;20255;-69
2022/06/08 06:29:51;;;;;;;8.50;6.10;;;;;;;;;;4840684;29;20204;-69
2022/06/08 06:32:44;;;;;;;6.77;5.80;;;;;;;;;;4859512;29;20215;-68
2022/06/08 06:35:15;;;;;;;6.70;6.00;;;;;;;;;;4843131;29;20208;-68
2022/06/08 06:37:42;;;;;;;6.77;6.07;;;;;;;;;;4858350;29;20236;-69
2022/06/08 06:40:09;;;;;;;7.10;6.13;;;;;;;;;;4874904;29;20557;-68
2022/06/08 06:42:39;;;;;;;6.67;5.97;;;;;;;;;;4857334;29;20308;-68
2022/06/08 06:45:26;;;;;;;8.00;5.80;;;;;;;;;;4845671;29;20240;-68
2022/06/08 06:48:03;;;;;;;8.93;6.03;;;;;;;;;;4857354;29;20260;-68
2022/06/08 06:50:35;;;;;;;7.13;5.70;;;;;;;;;;4858226;29;20542;-68
2022/06/08 06:53:20;;;;;;;6.43;5.83;;;;;;;;;;4857861;29;20180;-68
2022/06/08 06:55:55;;;;;;;7.47;5.67;;;;;;;;;;4842169;29;20198;-68
2022/06/08 06:58:32;;;;;;;5.93;5.20;;;;;;;;;;4844048;29;20204;-68
2022/06/08 07:01:00;;;;;;;5.77;5.27;;;;;;;;;;4857764;29;20315;-69
2022/06/08 07:03:29;;;;;;;6.07;5.47;;;;;;;;;;4857875;29;20268;-68
2022/06/08 07:05:57;;;;;;;5.17;4.77;;;;;;;;;;4874916;29;20625;-67
2022/06/08 07:08:24;;;;;;;8.10;5.60;;;;;;;;;;4857322;29;20216;-67
2022/06/08 07:13:41;;;;;;;5.53;4.37;;;;;;;;;;4857862;29;20327;-67
2022/06/08 07:16:09;;;;;;;4.97;4.47;;;;;;;;;;4857571;29;20228;-67
2022/06/08 07:18:37;;;;;;;5.00;4.50;;;;;;;;;;4847314;29;20197;-67
2022/06/08 07:21:04;;;;;;;6.87;4.40;;;;;;;;;;4842026;29;20204;-68
2022/06/08 07:23:33;;;;;;;6.03;4.53;;;;;;;;;;4857357;29;20197;-67
2022/06/08 07:25:59;;;;;;;5.73;4.40;;;;;;;;;;4857751;29;20193;-67
2022/06/08 07:28:27;;;;;;;5.00;4.13;;;;;;;;;;4874425;29;20247;-67
2022/06/08 07:30:53;;;;;;;4.97;4.47;;;;;;;;;;4874017;29;20203;-67
2022/06/08 07:33:20;;;;;;;6.17;4.40;;;;;;;;;;4857123;29;20211;-67
2022/06/08 07:35:47;;;;;;;6.97;4.30;;;;;;;;;;4858153;29;20261;-67
2022/06/08 07:38:18;;;;;;;5.90;4.37;;;;;;;;;;4858130;29;20205;-68
2022/06/08 07:40:45;;;;;;;5.27;3.83;;;;;;;;;;4874260;29;20564;-68
2022/06/08 07:43:12;;;;;;;5.83;4.53;;;;;;;;;;4874067;29;20209;-68
2022/06/08 07:45:56;;;;;;;5.10;4.10;;;;;;;;;;4874077;29;20184;-68
2022/06/08 07:51:27;;;;;;;4.40;3.90;;;;;;;;;;4873877;29;20177;-68
2022/06/08 07:53:53;;;;;;;5.70;4.20;;;;;;;;;;4873405;29;20213;-68
2022/06/08 07:56:20;;;;;;;4.43;3.53;;;;;;;;;;4873522;29;20311;-68
2022/06/08 07:58:48;;;;;;;3.83;3.40;;;;;;;;;;4874311;29;20233;-68
2022/06/08 08:01:16;;;;;;;4.63;3.37;;;;;;;;;;4857242;29;20534;-68
2022/06/08 08:03:43;;;;;;;4.30;3.60;;;;;;;;;;4857380;29;20198;-68
2022/06/08 08:06:10;;;;;;;3.87;3.20;;;;;;;;;;4873779;29;20201;-68
2022/06/08 08:08:38;;;;;;;3.97;3.00;;;;;;;;;;4873994;29;20614;-68
2022/06/08 08:11:05;;;;;;;5.73;3.20;;;;;;;;;;4873696;29;20197;-67
2022/06/08 08:13:32;;;;;;;4.20;3.70;;;;;;;;;;4857349;29;20334;-68
2022/06/08 08:15:59;;;;;;;3.90;3.50;;;;;;;;;;4873635;29;20197;-68
2022/06/08 08:18:26;;;;;;;4.03;3.60;;;;;;;;;;4863323;29;20197;-68
2022/06/08 08:20:53;;;;;;;3.90;3.50;;;;;;;;;;4857038;29;20229;-68
2022/06/08 08:23:19;;;;;;;4.40;3.20;;;;;;;;;;4873194;29;20204;-68
2022/06/08 08:45:14;;;;;;;5.13;3.07;;;;;;;;;;5019515;27;20553;-65
2022/06/08 08:47:47;;;;;;;5.07;2.93;;;;;;;;;;5003822;28;20324;-65
2022/06/08 08:50:16;;;;;;;5.50;3.13;;;;;;;;;;5022420;28;20592;-65
2022/06/08 08:52:49;;;;;;;5.07;3.17;;;;;;;;;;5039800;28;20238;-65
2022/06/08 08:55:23;;;;;;;3.87;2.80;;;;;;;;;;5039247;28;20278;-65
2022/06/08 08:57:54;;;;;;;4.30;3.13;;;;;;;;;;5024999;28;20268;-65
2022/06/08 09:00:29;;;;;;;4.77;3.20;;;;;;;;;;5041844;28;20237;-65
2022/06/08 09:05:42;;;;;;;3.40;3.10;;;;;;;;;;5021984;28;20234;-64
2022/06/08 09:08:12;;;;;;;4.27;3.03;;;;;;;;;;5039733;28;20238;-64
2022/06/08 09:10:39;;;;;;;3.97;2.77;;;;;;;;;;5002222;28;20752;-66
2022/06/08 09:13:05;;;;;;;3.33;2.77;;;;;;;;;;5003707;28;20224;-65
2022/06/08 09:15:42;;;;;;;3.73;2.77;;;;;;;;;;5019654;28;20223;-65
2022/06/08 09:18:16;;;;;;;3.40;2.73;;;;;;;;;;5012416;28;217016;-65
2022/06/08 09:20:43;;;;;;;3.93;2.50;;;;;;;;;;5002393;28;20306;-66
2022/06/08 09:23:28;;;;;;;3.20;2.60;;;;;;;;;;5008281;28;20231;-66
2022/06/08 09:26:07;;;;;;;6.37;2.70;;;;;;;;;;5038273;28;20289;-70
2022/06/08 09:28:34;;;;;;;4.73;2.50;;;;;;;;;;5039482;28;20230;-65
2022/06/08 09:31:00;;;;;;;4.90;2.90;;;;;;;;;;5041266;28;20689;-65
2022/06/08 09:33:32;;;;;;;5.00;2.67;;;;;;;;;;5038709;28;20236;-65
2022/06/08 09:36:01;;;;;;;5.03;2.60;;;;;;;;;;5021053;28;20229;-65
2022/06/08 09:38:28;;;;;;;4.90;2.50;;;;;;;;;;5038738;28;20231;-68
2022/06/08 09:41:14;;;;;;;3.47;2.80;;;;;;;;;;5040538;28;20247;-67
2022/06/08 09:43:55;;;;;;;3.93;2.53;;;;;;;;;;5020436;28;20242;-67
2022/06/08 09:52:33;;;;;;;3.60;2.70;;;;;;;;;;4993926;28;20230;-65
2022/06/08 09:55:08;;;;;;;4.07;2.80;;;;;;;;;;4992743;28;20256;-65
2022/06/08 09:57:40;;;;;;;3.40;2.40;;;;;;;;;;5025156;28;20307;-65
2022/06/08 10:00:09;;;;;;;3.60;2.70;;;;;;;;;;5007175;28;20681;-65
2022/06/08 10:02:44;;;;;;;2.53;2.33;;;;;;;;;;5025277;28;20301;-65
2022/06/08 10:05:14;;;;;;;2.93;2.60;;;;;;;;;;5024711;28;20219;-65
2022/06/08 10:07:41;;;;;;;3.50;2.27;;;;;;;;;;5024608;28;20234;-70
2022/06/08 10:10:27;;;;;;;3.23;2.63;;;;;;;;;;5026438;28;20222;-65
2022/06/08 10:12:58;;;;;;;4.70;2.50;;;;;;;;;;5024430;28;20305;-67
2022/06/08 10:15:45;;;;;;;4.27;2.70;;;;;;;;;;5025099;28;20721;-67
2022/06/08 10:18:14;;;;;;;3.33;2.50;;;;;;;;;;5007546;28;20608;-65
2022/06/08 10:20:41;;;;;;;3.33;2.60;;;;;;;;;;5007404;28;20224;-65
2022/06/08 10:23:20;;;;;;;4.97;2.70;;;;;;;;;;4996140;28;20260;-65
2022/06/08 10:26:02;;;;;;;4.97;2.63;;;;;;;;;;4998212;28;20261;-65
2022/06/08 10:28:30;;;;;;;2.63;2.40;;;;;;;;;;5005851;28;20285;-65
2022/06/08 10:31:02;;;;;;;4.63;2.70;;;;;;;;;;5004427;28;20246;-65
2022/06/08 10:33:32;;;;;;;3.87;2.60;;;;;;;;;;4943954;28;20227;-66
2022/06/08 10:35:59;;;;;;;3.10;2.43;;;;;;;;;;4988586;28;20684;-65
2022/06/08 10:38:30;;;;;;;2.63;2.40;;;;;;;;;;4986955;28;20702;-65
2022/06/08 10:40:56;;;;;;;2.60;2.40;;;;;;;;;;5003589;28;20310;-66
2022/06/08 10:43:24;;;;;;;2.43;2.20;;;;;;;;;;4980503;28;20277;-65
2022/06/08 10:45:52;;;;;;;4.83;2.97;;;;;;;;;;4990883;28;20242;-65
2022/06/08 10:48:38;;;;;;;3.23;2.40;;;;;;;;;;5024147;28;20257;-68
2022/06/08 10:51:10;;;;;;;2.40;2.10;;;;;;;;;;5022758;28;20221;-65
2022/06/08 10:56:51;;;;;;;5.17;2.10;;;;;;;;;;5022085;28;20313;-65
2022/06/08 10:59:24;;;;;;;2.10;1.70;;;;;;;;;;5023850;28;20231;-70
2022/06/08 11:01:53;;;;;;;3.03;1.80;;;;;;;;;;5023972;28;20248;-65
2022/06/08 11:04:26;;;;;;;2.07;1.70;;;;;;;;;;5026009;28;20700;-65
2022/06/08 11:07:00;;;;;;;3.73;1.83;;;;;;;;;;5024042;28;20241;-67
2022/06/08 11:09:33;;;;;;;3.00;2.10;;;;;;;;;;5023591;28;20767;-65
2022/06/08 11:12:35;;;;;;;2.17;1.83;;;;;;;;;;5023575;28;20222;-65
2022/06/08 11:15:10;;;;;;;3.40;1.70;;;;;;;;;;5024287;28;20235;-65
2022/06/08 11:17:48;;;;;;;3.00;2.10;;;;;;;;;;5006584;28;20317;-65
2022/06/08 11:20:22;;;;;;;3.30;2.00;;;;;;;;;;5006845;28;20305;-65
2022/06/08 11:23:21;;;;;;;2.03;1.83;;;;;;;;;;4979599;28;20222;-66
2022/06/08 11:26:06;;;;;;;3.83;1.80;;;;;;;;;;5023468;28;20238;-65
2022/06/08 11:28:40;;;;;;;2.80;1.80;;;;;;;;;;5024838;28;20273;-65
2022/06/08 11:31:09;;;;;;;3.17;2.10;;;;;;;;;;5023940;28;20315;-65
2022/06/08 11:34:02;;;;;;;2.13;1.90;;;;;;;;;;5023220;28;20251;-65
2022/06/08 11:36:29;;;;;;;3.67;2.10;;;;;;;;;;5020928;28;20751;-65
2022/06/08 11:38:57;;;;;;;2.70;2.10;;;;;;;;;;5025145;28;20708;-65
2022/06/08 11:41:24;;;;;;;2.37;2.00;;;;;;;;;;4998130;28;20229;-65
2022/06/08 11:43:54;;;;;;;2.83;2.23;;;;;;;;;;5009944;28;20230;-65
2022/06/08 11:46:33;;;;;;;2.60;2.10;;;;;;;;;;5005860;28;20227;-65
2022/06/08 11:49:00;;;;;;;2.70;2.50;;;;;;;;;;5005758;28;20245;-65
2022/06/08 11:51:29;;;;;;;2.63;1.93;;;;;;;;;;5025029;28;20242;-65
2022/06/08 11:53:58;;;;;;;3.03;2.20;;;;;;;;;;5023594;28;20235;-65
2022/06/08 11:56:25;;;;;;;2.40;2.20;;;;;;;;;;5019774;28;20732;-65
2022/06/08 11:58:54;;;;;;;2.37;2.17;;;;;;;;;;5024198;28;20255;-65
2022/06/08 12:01:22;;;;;;;2.77;2.07;;;;;;;;;;5007692;28;20244;-65
2022/06/08 12:03:51;;;;;;;2.63;2.37;;;;;;;;;;5005258;28;20237;-65
2022/06/08 12:06:22;;;;;;;2.50;2.23;;;;;;;;;;5005300;28;20226;-65
2022/06/08 12:08:51;;;;;;;5.13;2.13;;;;;;;;;;5022108;28;20309;-65
2022/06/08 12:11:19;;;;;;;2.73;2.33;;;;;;;;;;5024643;28;20230;-65
2022/06/08 12:14:01;;;;;;;5.17;2.27;;;;;;;;;;5022067;28;20296;-65
2022/06/08 12:16:34;;;;;;;2.77;2.37;;;;;;;;;;5022716;28;20708;-65
2022/06/08 12:19:04;;;;;;;3.00;2.20;;;;;;;;;;5022833;28;20238;-65
2022/06/08 12:21:49;;;;;;;2.57;2.33;;;;;;;;;;5023139;28;20228;-65
2022/06/08 12:24:18;;;;;;;2.40;2.20;;;;;;;;;;5022745;28;20229;-65
2022/06/08 12:26:55;;;;;;;5.43;2.33;;;;;;;;;;4995798;28;20571;-65
2022/06/08 12:29:28;;;;;;;2.50;2.30;;;;;;;;;;4972961;28;20593;-64
2022/06/08 12:32:05;;;;;;;3.40;2.40;;;;;;;;;;4987607;28;20235;-65
2022/06/08 12:34:39;;;;;;;3.30;2.23;;;;;;;;;;4989616;28;20305;-64
2022/06/08 12:37:24;;;;;;;3.37;2.30;;;;;;;;;;4984650;28;20281;-63
2022/06/08 12:39:55;;;;;;;3.63;2.30;;;;;;;;;;5002771;28;20882;-64
2022/06/08 12:42:26;;;;;;;4.37;2.50;;;;;;;;;;5012309;28;20283;-64
2022/06/08 12:45:00;;;;;;;3.67;2.37;;;;;;;;;;5021789;28;20716;-65
2022/06/08 12:47:29;;;;;;;4.30;2.50;;;;;;;;;;5024267;28;20225;-65
2022/06/08 12:49:57;;;;;;;3.83;2.20;;;;;;;;;;5022538;28;20226;-64
2022/06/08 12:52:24;;;;;;;4.00;2.17;;;;;;;;;;5023358;28;22796;-64
2022/06/08 12:55:16;;;;;;;3.97;2.20;;;;;;;;;;5004178;28;20283;-64
2022/06/08 12:57:44;;;;;;;4.10;2.40;;;;;;;;;;5022880;28;20217;-65
2022/06/08 13:00:11;;;;;;;3.03;2.33;;;;;;;;;;5022939;28;20613;-66
2022/06/08 13:02:38;;;;;;;3.30;2.33;;;;;;;;;;5006545;28;20337;-65
2022/06/08 13:05:16;;;;;;;3.30;2.10;;;;;;;;;;5022526;28;20295;-65
2022/06/08 13:07:43;;;;;;;3.07;2.50;;;;;;;;;;5022197;28;20230;-64
2022/06/08 13:10:10;;;;;;;2.93;2.37;;;;;;;;;;5024142;28;20767;-64
2022/06/08 13:12:40;;;;;;;3.23;2.40;;;;;;;;;;5022357;28;20234;-65
2022/06/08 13:15:20;;;;;;;2.77;2.30;;;;;;;;;;5022617;28;20321;-65
2022/06/08 13:17:47;;;;;;;5.20;2.40;;;;;;;;;;5021295;28;20265;-62
2022/06/08 13:20:18;;;;;;;3.23;2.40;;;;;;;;;;5010484;28;20226;-64
2022/06/08 13:22:45;;;;;;;2.80;2.30;;;;;;;;;;5025996;28;20629;-65
2022/06/08 13:25:18;;;;;;;2.67;2.07;;;;;;;;;;5018499;28;20359;-65
2022/06/08 13:27:48;;;;;;;4.37;2.27;;;;;;;;;;4996993;28;20238;-70
2022/06/08 13:30:22;;;;;;;4.07;2.20;;;;;;;;;;5010465;28;20250;-65
2022/06/08 13:33:56;;;;;;;2.90;2.27;;;;;;;;;;5026493;28;20283;-65
2022/06/08 13:35:53;;;;;;;2.47;2.13;;;;;;;;;;5011481;28;20230;-63
2022/06/08 13:38:20;;;;;;;4.10;2.03;;;;;;;;;;5026132;28;20574;-63
2022/06/08 13:40:47;;;;;;;3.37;2.00;;;;;;;;;;5027475;28;20236;-65
2022/06/08 13:43:21;;;;;;;2.77;2.10;;;;;;;;;;5024989;28;20233;-66
2022/06/08 13:46:07;;;;;;;2.47;2.13;;;;;;;;;;5026660;28;20230;-66
2022/06/08 13:48:33;;;;;;;5.30;2.23;;;;;;;;;;4998381;28;20644;-66
2022/06/08 13:51:18;;;;;;;5.47;2.20;;;;;;;;;;5010539;28;20222;-66
2022/06/08 13:53:44;;;;;;;4.57;2.20;;;;;;;;;;5002191;28;20239;-66
2022/06/08 13:56:29;;;;;;;3.67;2.17;;;;;;;;;;5002658;28;20645;-66
2022/06/08 13:58:57;;;;;;;3.77;2.00;;;;;;;;;;5004170;28;20238;-68
2022/06/08 14:01:29;;;;;;;3.87;2.00;;;;;;;;;;5021399;28;20790;-66
2022/06/08 14:03:57;;;;;;;2.30;2.10;;;;;;;;;;4991695;28;20234;-66
2022/06/08 14:15:09;;;;;;;5.13;2.10;;;;;;;;;;5005753;28;21438;-66
2022/06/08 14:17:35;;;;;;;3.50;2.00;;;;;;;;;;5004145;28;22463;-66
2022/06/08 14:20:03;;;;;;;3.10;2.07;;;;;;;;;;5005626;28;28108;-66
2022/06/08 14:22:31;;;;;;;2.87;2.10;;;;;;;;;;5005288;28;20563;-66
2022/06/08 14:25:01;;;;;;;4.43;2.10;;;;;;;;;;4986800;28;20247;-66
2022/06/08 14:27:30;;;;;;;3.07;2.30;;;;;;;;;;5006569;28;20235;-65
2022/06/08 14:29:57;;;;;;;2.57;2.10;;;;;;;;;;5004713;28;20235;-65
2022/06/08 14:32:39;;;;;;;4.13;2.43;;;;;;;;;;5006026;28;20742;-64
2022/06/08 14:35:08;;;;;;;3.37;2.50;;;;;;;;;;5005947;28;20246;-65
2022/06/08 14:37:53;;;;;;;2.63;2.30;;;;;;;;;;4989572;28;20219;-65
2022/06/08 14:40:24;;;;;;;2.50;2.30;;;;;;;;;;5006749;28;20304;-65
2022/06/08 14:42:51;;;;;;;2.93;2.63;;;;;;;;;;5018269;28;20696;-65
2022/06/08 14:45:18;;;;;;;3.30;2.30;;;;;;;;;;5026587;28;20234;-65
2022/06/08 14:47:45;;;;;;;3.13;2.50;;;;;;;;;;5002127;28;20231;-65
2022/06/08 14:50:18;;;;;;;4.47;2.37;;;;;;;;;;4962851;28;20247;-67
2022/06/08 14:52:45;;;;;;;3.73;2.50;;;;;;;;;;4989138;28;22064;-65
2022/06/08 14:58:01;;;;;;;3.53;2.70;;;;;;;;;;5001561;28;20606;-66
2022/06/08 15:00:28;;;;;;;2.60;2.40;;;;;;;;;;5001169;28;20589;-66
2022/06/08 15:02:56;;;;;;;5.53;2.57;;;;;;;;;;5009301;28;20309;-66
2022/06/08 15:05:22;;;;;;;4.80;3.00;;;;;;;;;;4982591;28;20235;-66
2022/06/08 15:07:50;;;;;;;3.60;2.60;;;;;;;;;;5012461;28;20250;-66
2022/06/08 15:10:17;;;;;;;6.20;2.97;;;;;;;;;;5002784;28;25576;-65
2022/06/08 15:12:45;;;;;;;3.63;2.30;;;;;;;;;;5006456;28;20223;-65
2022/06/08 15:15:14;;;;;;;17.07;3.00;;;;;;;;;;5006096;28;23378;-66
2022/06/08 15:17:41;;;;;;;4.13;2.43;;;;;;;;;;4980447;28;20281;-66
2022/06/08 15:20:11;;;;;;;3.83;2.50;;;;;;;;;;5003067;28;20224;-66
2022/06/08 15:22:38;;;;;;;3.83;2.80;;;;;;;;;;4984970;28;20239;-66
2022/06/08 15:25:08;;;;;;;3.20;2.60;;;;;;;;;;5013554;28;20241;-66
2022/06/08 15:27:36;;;;;;;2.90;2.60;;;;;;;;;;5008507;28;20228;-66
2022/06/08 15:30:05;;;;;;;5.50;3.00;;;;;;;;;;4973106;28;20229;-66
2022/06/08 15:32:32;;;;;;;3.57;2.43;;;;;;;;;;4982924;28;20586;-66
2022/06/08 15:34:59;;;;;;;3.17;2.63;;;;;;;;;;4996370;28;20683;-66
2022/06/08 15:37:27;;;;;;;4.27;2.53;;;;;;;;;;5005127;28;20232;-67
2022/06/08 15:39:53;;;;;;;6.80;3.50;;;;;;;;;;4986545;28;20237;-66
2022/06/08 15:42:21;;;;;;;11.50;4.00;;;;;;;;;;4975800;28;20775;-67
2022/06/08 15:44:47;;;;;;;18.17;5.53;;;;;;;;;;4997071;28;20227;-67
2022/06/08 15:47:15;;;;;;;10.57;5.60;;;;;;;;;;5010214;28;20350;-67
2022/06/08 15:49:42;;;;;;;7.47;5.00;;;;;;;;;;4998545;28;20920;-67
2022/06/08 15:52:12;;;;;;;7.90;5.70;;;;;;;;;;5002210;28;20308;-68
2022/06/08 15:54:41;;;;;;;7.47;5.43;;;;;;;;;;4974492;28;20682;-66